Time;durP1;ratioP1;P1;durP2;ratioP2;P2;SDS_P1;SDS_P2;PMS_P1;PMS_P2;Temp;Humidity;BMP_temperature;BMP_pressure;BME280_temperature;BME280_humidity;BME280_pressure;Samples;Min_cycle;Max_cycle;Signal;HPM_P1;HPM_P2
2022/10/14 00:00:40;;;;;;;48.60;33.28;;;12.20;99.90;;;;;;4771059;30;20502;-71
2022/10/14 00:03:06;;;;;;;44.67;31.52;;;12.20;99.90;;;;;;4771407;30;20055;-71
2022/10/14 00:05:32;;;;;;;44.00;31.65;;;12.10;99.90;;;;;;4770921;30;20028;-70
2022/10/14 00:07:58;;;;;;;42.47;32.05;;;12.20;99.90;;;;;;4771107;30;20040;-71
2022/10/14 00:10:24;;;;;;;45.42;34.03;;;12.20;99.90;;;;;;4754768;30;20117;-72
2022/10/14 00:12:50;;;;;;;42.13;32.92;;;12.20;99.90;;;;;;4771012;30;20399;-72
2022/10/14 00:15:17;;;;;;;43.78;32.67;;;12.00;99.90;;;;;;4771057;30;20050;-70
2022/10/14 00:17:43;;;;;;;45.55;32.50;;;12.10;99.90;;;;;;4770033;30;20046;-71
2022/10/14 00:20:09;;;;;;;48.25;36.25;;;12.10;99.90;;;;;;4770962;30;20028;-71
2022/10/14 00:22:35;;;;;;;52.70;36.30;;;12.10;99.90;;;;;;4770727;30;20118;-71
2022/10/14 00:25:00;;;;;;;50.08;35.60;;;12.10;99.90;;;;;;4770977;30;20439;-71
2022/10/14 00:27:27;;;;;;;44.97;33.97;;;12.10;99.90;;;;;;4770698;30;20035;-71
2022/10/14 00:29:53;;;;;;;79.03;53.78;;;12.10;99.90;;;;;;4770844;30;20040;-70
2022/10/14 00:32:18;;;;;;;65.03;46.58;;;12.10;99.90;;;;;;4771306;30;20078;-70
2022/10/14 00:34:44;;;;;;;70.00;45.97;;;12.10;99.90;;;;;;4768500;30;20036;-70
2022/10/14 00:37:10;;;;;;;58.55;43.28;;;12.10;99.90;;;;;;4768691;30;20032;-70
2022/10/14 00:39:36;;;;;;;40.47;30.52;;;12.10;99.90;;;;;;4770572;30;20066;-70
2022/10/14 00:42:02;;;;;;;41.13;30.20;;;12.10;99.90;;;;;;4770505;30;20032;-70
2022/10/14 00:44:28;;;;;;;40.75;27.38;;;12.10;99.90;;;;;;4745963;30;20492;-71
2022/10/14 00:46:55;;;;;;;40.28;30.88;;;12.00;99.90;;;;;;4761266;30;20028;-71
2022/10/14 00:49:29;;;;;;;41.30;29.13;;;12.00;99.90;;;;;;4753939;30;20078;-71
2022/10/14 00:52:18;;;;;;;40.15;26.95;;;12.00;99.90;;;;;;4769533;30;20035;-70
2022/10/14 00:54:57;;;;;;;38.95;28.15;;;12.00;99.90;;;;;;4769670;30;20032;-70
2022/10/14 00:57:24;;;;;;;38.15;26.40;;;12.00;99.90;;;;;;4749631;30;20060;-70
2022/10/14 00:59:51;;;;;;;40.58;26.58;;;12.10;99.90;;;;;;4769947;30;20032;-71
2022/10/14 01:02:17;;;;;;;39.60;25.20;;;12.00;99.90;;;;;;4770103;30;20032;-71
2022/10/14 01:04:45;;;;;;;38.88;27.15;;;12.00;99.90;;;;;;4769513;30;20047;-71
2022/10/14 01:07:39;;;;;;;33.90;26.85;;;12.00;99.90;;;;;;4767757;30;20036;-70
2022/10/14 01:10:35;;;;;;;37.25;27.17;;;12.00;99.90;;;;;;4761486;30;20055;-71
2022/10/14 01:13:06;;;;;;;36.42;25.63;;;12.00;99.90;;;;;;4758666;30;20039;-70
2022/10/14 01:15:50;;;;;;;32.92;25.55;;;12.00;99.90;;;;;;4769441;30;20086;-71
2022/10/14 01:18:31;;;;;;;37.00;24.95;;;12.00;99.90;;;;;;4753047;30;20048;-70
2022/10/14 01:21:16;;;;;;;30.92;22.17;;;11.90;99.90;;;;;;4746929;30;20091;-70
2022/10/14 01:24:00;;;;;;;34.72;23.05;;;11.90;99.90;;;;;;4753233;30;20047;-70
2022/10/14 01:26:28;;;;;;;34.92;23.33;;;11.80;99.90;;;;;;4768490;30;20039;-70
2022/10/14 01:29:12;;;;;;;36.50;26.52;;;11.70;99.90;;;;;;4765666;30;20032;-71
2022/10/14 01:31:45;;;;;;;38.90;28.80;;;11.70;99.90;;;;;;4757599;30;20062;-72
2022/10/14 01:34:19;;;;;;;34.40;26.73;;;11.60;99.90;;;;;;4751418;30;20032;-71
2022/10/14 01:36:54;;;;;;;41.75;31.20;;;11.50;99.90;;;;;;4765661;30;20031;-71
2022/10/14 01:39:25;;;;;;;42.10;32.35;;;11.50;99.90;;;;;;4748158;30;20463;-72
2022/10/14 01:41:56;;;;;;;39.58;29.20;;;11.50;99.90;;;;;;4742859;30;20503;-70
2022/10/14 01:44:23;;;;;;;48.80;32.28;;;11.40;99.90;;;;;;4762543;30;20085;-71
2022/10/14 01:46:52;;;;;;;43.30;31.35;;;11.30;99.90;;;;;;4750349;30;20082;-70
2022/10/14 01:49:29;;;;;;;45.72;32.13;;;11.20;99.90;;;;;;4756595;30;20527;-70
2022/10/14 01:52:01;;;;;;;41.67;31.42;;;11.20;99.90;;;;;;4768691;30;20027;-70
2022/10/14 01:54:36;;;;;;;46.97;33.28;;;11.20;99.90;;;;;;4753421;30;20046;-70
2022/10/14 01:57:06;;;;;;;39.28;31.33;;;11.10;99.90;;;;;;4766803;30;20556;-70
2022/10/14 01:59:34;;;;;;;39.65;30.48;;;11.10;99.90;;;;;;4769152;30;20065;-70
2022/10/14 02:02:00;;;;;;;40.50;30.80;;;11.00;99.90;;;;;;4753201;30;20036;-71
2022/10/14 02:04:26;;;;;;;44.63;37.75;;;11.00;99.90;;;;;;4769149;30;20051;-71
2022/10/14 02:06:57;;;;;;;41.05;33.15;;;10.90;99.90;;;;;;4751667;30;20028;-72
2022/10/14 02:09:47;;;;;;;42.38;34.60;;;10.90;99.90;;;;;;4767982;30;20108;-71
2022/10/14 02:12:30;;;;;;;45.10;35.72;;;10.90;99.90;;;;;;4748103;30;20028;-71
2022/10/14 02:15:18;;;;;;;44.60;33.42;;;10.90;99.90;;;;;;4742884;30;20031;-72
2022/10/14 02:17:50;;;;;;;51.33;38.53;;;10.90;99.90;;;;;;4769103;30;20388;-71
2022/10/14 02:20:28;;;;;;;53.05;40.15;;;10.70;99.90;;;;;;4769214;30;20056;-71
2022/10/14 02:22:59;;;;;;;48.72;36.85;;;10.50;99.90;;;;;;4768197;30;20042;-71
2022/10/14 02:25:32;;;;;;;44.75;36.17;;;10.60;99.90;;;;;;4764102;30;20399;-71
2022/10/14 02:28:00;;;;;;;43.00;35.60;;;10.60;99.90;;;;;;4750937;30;20036;-70
2022/10/14 02:30:29;;;;;;;41.30;31.35;;;10.60;99.90;;;;;;4765845;30;20480;-71
2022/10/14 02:32:59;;;;;;;37.25;29.55;;;10.60;99.90;;;;;;4766364;30;20032;-72
2022/10/14 02:35:29;;;;;;;40.20;30.73;;;10.60;99.90;;;;;;4751700;30;20513;-70
2022/10/14 02:37:57;;;;;;;40.58;33.42;;;10.60;99.90;;;;;;4745900;30;20036;-71
2022/10/14 02:40:28;;;;;;;43.60;32.63;;;10.60;99.90;;;;;;4768437;30;20032;-70
2022/10/14 02:42:54;;;;;;;45.25;31.65;;;10.50;99.90;;;;;;4752324;30;20055;-71
2022/10/14 02:45:20;;;;;;;42.65;32.65;;;10.50;99.90;;;;;;4756052;30;20483;-70
2022/10/14 02:47:46;;;;;;;47.35;34.92;;;10.50;99.90;;;;;;4760431;30;20040;-70
2022/10/14 02:50:13;;;;;;;44.83;35.47;;;10.50;99.90;;;;;;4752752;30;20032;-71
2022/10/14 02:52:39;;;;;;;45.05;33.22;;;10.50;99.90;;;;;;4772095;30;20039;-71
2022/10/14 02:55:05;;;;;;;44.10;31.77;;;10.40;99.90;;;;;;4772162;30;20027;-71
2022/10/14 02:57:30;;;;;;;46.30;34.67;;;10.40;99.90;;;;;;4746493;30;20523;-70
2022/10/14 02:59:56;;;;;;;43.67;32.00;;;10.40;99.90;;;;;;4755935;30;20044;-71
2022/10/14 03:02:23;;;;;;;43.60;33.85;;;10.40;99.90;;;;;;4756205;30;20070;-70
2022/10/14 03:04:49;;;;;;;48.20;31.95;;;10.50;99.90;;;;;;4755727;30;20071;-70
2022/10/14 03:07:16;;;;;;;39.45;32.00;;;10.40;99.90;;;;;;4755709;30;20036;-70
2022/10/14 03:09:46;;;;;;;37.53;30.67;;;10.50;99.90;;;;;;4781018;29;20391;-70
2022/10/14 03:12:12;;;;;;;39.35;32.22;;;10.60;99.90;;;;;;4741202;30;20039;-70
2022/10/14 03:14:39;;;;;;;39.25;30.50;;;10.60;99.90;;;;;;4755870;30;20027;-71
2022/10/14 03:17:07;;;;;;;41.90;30.52;;;10.70;99.90;;;;;;4755744;30;20097;-70
2022/10/14 03:19:33;;;;;;;38.70;28.23;;;10.70;99.90;;;;;;4755734;30;20032;-72
2022/10/14 03:22:00;;;;;;;33.72;27.90;;;10.70;99.90;;;;;;4755687;30;20032;-69
2022/10/14 03:24:26;;;;;;;35.88;27.67;;;10.80;99.90;;;;;;4771604;30;20036;-70
2022/10/14 03:27:18;;;;;;;34.50;28.55;;;10.80;99.90;;;;;;4743270;30;20098;-71
2022/10/14 03:29:49;;;;;;;33.95;25.58;;;10.80;99.90;;;;;;4751224;30;20088;-71
2022/10/14 03:32:19;;;;;;;33.65;27.45;;;10.70;99.90;;;;;;4746110;30;20544;-73
2022/10/14 03:35:04;;;;;;;35.25;28.13;;;10.70;99.90;;;;;;4771337;30;20090;-71
2022/10/14 03:37:31;;;;;;;35.65;28.50;;;10.70;99.90;;;;;;4753526;30;20093;-70
2022/10/14 03:39:58;;;;;;;38.40;29.17;;;10.70;99.90;;;;;;4754419;30;20032;-70
2022/10/14 03:42:24;;;;;;;40.92;30.48;;;10.70;99.90;;;;;;4750609;30;20037;-69
2022/10/14 03:44:50;;;;;;;46.55;32.28;;;10.70;99.90;;;;;;4737935;30;20102;-69
2022/10/14 03:47:23;;;;;;;49.83;32.90;;;10.70;99.90;;;;;;4769279;30;20055;-71
2022/10/14 03:49:48;;;;;;;65.07;34.08;;;10.70;99.90;;;;;;4768325;30;20034;-70
2022/10/14 03:52:21;;;;;;;46.70;30.63;;;10.60;99.90;;;;;;4748780;30;20032;-69
2022/10/14 03:54:57;;;;;;;46.70;31.40;;;10.60;99.90;;;;;;4740256;30;20053;-69
2022/10/14 03:57:24;;;;;;;40.10;31.77;;;10.60;99.90;;;;;;4777335;30;20538;-70
2022/10/14 03:59:53;;;;;;;38.63;28.80;;;10.50;99.90;;;;;;4740039;30;20028;-69
2022/10/14 04:02:20;;;;;;;35.20;27.02;;;10.50;99.90;;;;;;4775033;30;20035;-70
2022/10/14 04:04:46;;;;;;;37.70;26.85;;;10.50;99.90;;;;;;4751802;30;20400;-71
2022/10/14 04:07:14;;;;;;;35.80;26.85;;;10.40;99.90;;;;;;4734026;30;20032;-72
2022/10/14 04:09:47;;;;;;;38.17;25.95;;;10.50;99.90;;;;;;4754439;30;20031;-71
2022/10/14 04:12:13;;;;;;;31.55;22.25;;;10.40;99.90;;;;;;4751356;30;20028;-71
2022/10/14 04:15:11;;;;;;;33.30;23.17;;;10.40;99.90;;;;;;4753313;30;20091;-72
2022/10/14 04:17:57;;;;;;;28.70;22.02;;;10.40;99.90;;;;;;4770114;30;20043;-71
2022/10/14 04:20:23;;;;;;;32.85;23.40;;;10.40;99.90;;;;;;4766148;30;20527;-71
2022/10/14 04:22:52;;;;;;;36.38;25.52;;;10.40;99.90;;;;;;4753458;30;20034;-71
2022/10/14 04:25:19;;;;;;;37.67;27.75;;;10.40;99.90;;;;;;4746466;30;20094;-72
2022/10/14 04:27:47;;;;;;;39.55;28.30;;;10.40;99.90;;;;;;4765824;30;20035;-71
2022/10/14 04:30:14;;;;;;;49.50;32.03;;;10.40;99.90;;;;;;4743795;30;20104;-71
2022/10/14 04:32:49;;;;;;;53.17;34.28;;;10.40;99.90;;;;;;4752301;30;20024;-71
2022/10/14 04:35:16;;;;;;;54.92;35.08;;;10.40;99.90;;;;;;4758665;29;20043;-70
2022/10/14 04:37:45;;;;;;;45.63;33.03;;;10.40;99.90;;;;;;4753115;30;20039;-71
2022/10/14 04:40:23;;;;;;;53.30;34.83;;;10.50;99.90;;;;;;4752738;30;20100;-71
2022/10/14 04:42:52;;;;;;;52.85;34.60;;;10.40;99.90;;;;;;4749455;30;20141;-71
2022/10/14 04:45:23;;;;;;;58.08;35.53;;;10.40;99.90;;;;;;4734895;30;20047;-71
2022/10/14 04:47:55;;;;;;;;;;;10.50;99.90;;;;;;4749328;30;20044;-71
2022/10/14 04:50:23;;;;;;;57.85;32.08;;;10.50;99.90;;;;;;4750407;30;19971;-71
2022/10/14 04:53:08;;;;;;;54.20;33.55;;;10.60;99.90;;;;;;4750711;30;20035;-71
2022/10/14 04:55:34;;;;;;;56.92;33.97;;;10.60;99.90;;;;;;4756523;30;20051;-70
2022/10/14 04:58:01;;;;;;;51.33;33.03;;;10.60;99.90;;;;;;4749399;30;20536;-71
2022/10/14 05:00:33;;;;;;;60.53;35.80;;;10.60;99.90;;;;;;4749684;30;20032;-70
2022/10/14 05:03:05;;;;;;;56.83;36.55;;;10.60;99.90;;;;;;4742859;30;20067;-72
2022/10/14 05:05:34;;;;;;;55.08;34.47;;;10.70;99.90;;;;;;4757270;30;20043;-71
2022/10/14 05:08:03;;;;;;;51.38;33.05;;;10.70;99.90;;;;;;4753463;30;20046;-72
2022/10/14 05:10:35;;;;;;;57.22;39.65;;;10.70;99.90;;;;;;4753565;30;20100;-72
2022/10/14 05:13:04;;;;;;;64.68;42.13;;;10.80;99.90;;;;;;4753805;30;20129;-72
2022/10/14 05:15:36;;;;;;;107.17;49.20;;;10.80;99.90;;;;;;4753394;30;20082;-71
2022/10/14 05:18:10;;;;;;;67.68;43.15;;;10.80;99.90;;;;;;4753800;30;20069;-72
2022/10/14 05:21:00;;;;;;;58.33;38.75;;;10.70;99.90;;;;;;4753543;30;20044;-72
2022/10/14 05:23:38;;;;;;;95.25;47.25;;;10.80;99.90;;;;;;4753456;30;20491;-72
2022/10/14 05:26:03;;;;;;;66.93;41.90;;;10.80;99.90;;;;;;4753347;30;20050;-72
2022/10/14 05:28:30;;;;;;;112.20;47.15;;;10.80;99.90;;;;;;4753319;30;20024;-72
2022/10/14 05:30:56;;;;;;;106.10;48.25;;;10.90;99.90;;;;;;4753357;30;20110;-72
2022/10/14 05:33:22;;;;;;;62.55;35.15;;;10.80;99.90;;;;;;4769562;30;20034;-72
2022/10/14 05:35:48;;;;;;;87.88;41.22;;;10.90;99.90;;;;;;4752903;30;20028;-72
2022/10/14 05:38:15;;;;;;;74.90;39.90;;;10.90;99.90;;;;;;4752776;30;20120;-72
2022/10/14 05:40:51;;;;;;;93.82;44.80;;;10.90;99.90;;;;;;4753059;30;20081;-72
2022/10/14 05:43:16;;;;;;;93.82;40.97;;;10.90;99.90;;;;;;4753006;30;20071;-72
2022/10/14 05:45:44;;;;;;;82.30;39.47;;;11.00;99.90;;;;;;4753551;30;20035;-71
2022/10/14 05:48:10;;;;;;;66.80;36.78;;;10.80;99.90;;;;;;4753380;30;20399;-72
2022/10/14 05:50:36;;;;;;;65.22;38.22;;;11.00;99.90;;;;;;4752983;30;20039;-72
2022/10/14 05:53:07;;;;;;;153.30;55.72;;;11.00;99.90;;;;;;4753196;30;20039;-71
2022/10/14 05:55:41;;;;;;;103.18;43.53;;;11.00;99.90;;;;;;4753421;30;20046;-72
2022/10/14 05:58:07;;;;;;;55.10;35.17;;;10.90;99.90;;;;;;4753002;30;20389;-72
2022/10/14 06:00:38;;;;;;;69.75;38.22;;;11.20;99.90;;;;;;4753460;30;20039;-72
2022/10/14 06:03:11;;;;;;;62.58;36.58;;;11.20;99.90;;;;;;4752979;30;20046;-72
2022/10/14 06:05:38;;;;;;;55.38;36.75;;;11.10;99.90;;;;;;4753270;30;20035;-72
2022/10/14 06:08:04;;;;;;;51.90;35.17;;;11.20;99.90;;;;;;4769082;30;20099;-72
2022/10/14 06:10:34;;;;;;;65.65;41.35;;;11.30;99.90;;;;;;4752967;30;20116;-72
2022/10/14 06:13:00;;;;;;;84.05;44.97;;;11.40;99.90;;;;;;4753457;30;20046;-72
2022/10/14 06:15:27;;;;;;;56.30;35.78;;;11.30;99.90;;;;;;4755085;30;20043;-72
2022/10/14 06:17:54;;;;;;;73.05;39.05;;;11.40;99.90;;;;;;4756320;30;20480;-72
2022/10/14 06:20:21;;;;;;;101.03;45.28;;;11.50;99.90;;;;;;4756717;30;20032;-72
2022/10/14 06:22:47;;;;;;;77.82;40.10;;;11.40;99.90;;;;;;4772468;30;20487;-72
2022/10/14 06:25:13;;;;;;;63.38;37.80;;;11.40;99.90;;;;;;4772904;30;20056;-72
2022/10/14 06:27:38;;;;;;;81.47;44.13;;;11.30;99.90;;;;;;4772720;30;20024;-72
2022/10/14 06:30:05;;;;;;;67.20;40.55;;;11.40;99.90;;;;;;4772803;30;20522;-72
2022/10/14 06:32:31;;;;;;;60.90;37.83;;;11.60;99.90;;;;;;4772776;30;20024;-72
2022/10/14 06:34:57;;;;;;;63.33;39.78;;;11.60;99.90;;;;;;4772525;30;20122;-72
2022/10/14 06:37:22;;;;;;;59.72;39.08;;;11.80;99.90;;;;;;4769342;30;20050;-72
2022/10/14 06:39:48;;;;;;;76.13;41.70;;;11.90;99.90;;;;;;4770547;30;20024;-72
2022/10/14 06:42:14;;;;;;;76.72;43.15;;;11.80;99.90;;;;;;4772428;30;20446;-72
2022/10/14 06:44:40;;;;;;;63.42;39.75;;;11.60;99.90;;;;;;4772332;30;20181;-72
2022/10/14 06:47:07;;;;;;;82.28;45.13;;;11.70;99.90;;;;;;4772295;30;20500;-72
2022/10/14 06:49:33;;;;;;;67.93;41.85;;;11.60;99.90;;;;;;4772043;30;20052;-72
2022/10/14 06:51:58;;;;;;;64.82;43.40;;;11.50;99.90;;;;;;4772187;30;20020;-71
2022/10/14 06:54:24;;;;;;;68.38;44.92;;;11.70;99.90;;;;;;4772212;30;20551;-72
2022/10/14 06:56:50;;;;;;;68.28;44.00;;;11.90;99.90;;;;;;4772087;30;20131;-72
2022/10/14 06:59:16;;;;;;;75.70;46.28;;;12.00;99.90;;;;;;4771962;30;20411;-72
2022/10/14 07:01:42;;;;;;;87.82;59.83;;;12.10;99.90;;;;;;4772141;30;20035;-72
2022/10/14 07:04:07;;;;;;;80.18;56.25;;;12.10;99.90;;;;;;4771388;30;20047;-72
2022/10/14 07:06:36;;;;;;;80.63;56.17;;;12.20;99.90;;;;;;4771719;30;20531;-72
2022/10/14 07:09:02;;;;;;;76.72;55.70;;;12.20;99.90;;;;;;4766275;30;20483;-72
2022/10/14 07:11:28;;;;;;;84.28;55.40;;;12.30;99.90;;;;;;4766105;30;20034;-72
2022/10/14 07:13:55;;;;;;;75.53;50.55;;;12.40;99.90;;;;;;4769414;30;20035;-72
2022/10/14 07:16:20;;;;;;;71.35;49.13;;;12.50;99.90;;;;;;4769613;30;20026;-72
2022/10/14 07:18:47;;;;;;;74.35;52.42;;;12.60;99.90;;;;;;4769192;30;20035;-73
2022/10/14 07:21:13;;;;;;;60.63;45.33;;;12.60;99.90;;;;;;4769502;30;20084;-72
2022/10/14 07:23:39;;;;;;;53.55;41.03;;;12.70;99.90;;;;;;4770017;30;20058;-72
2022/10/14 07:26:05;;;;;;;49.58;38.05;;;12.80;99.90;;;;;;4770355;30;20039;-72
2022/10/14 07:28:32;;;;;;;49.92;36.72;;;13.10;99.90;;;;;;4770705;30;20040;-72
2022/10/14 07:30:59;;;;;;;49.88;37.72;;;13.20;99.90;;;;;;4770557;30;20032;-72
2022/10/14 07:33:25;;;;;;;54.03;36.38;;;13.50;99.90;;;;;;4770874;30;20084;-72
2022/10/14 07:35:51;;;;;;;46.25;34.00;;;13.70;99.90;;;;;;4770060;30;20429;-72
2022/10/14 07:38:17;;;;;;;49.08;33.90;;;13.90;99.90;;;;;;4769838;30;20027;-72
2022/10/14 07:40:43;;;;;;;46.97;34.30;;;14.10;99.90;;;;;;4770438;30;20468;-72
2022/10/14 07:43:09;;;;;;;42.38;31.00;;;14.20;99.90;;;;;;4770643;30;20047;-72
2022/10/14 07:45:39;;;;;;;42.25;29.83;;;14.10;99.90;;;;;;4770224;30;20039;-73
2022/10/14 07:48:05;;;;;;;40.03;30.48;;;14.20;99.90;;;;;;4770459;30;20035;-72
2022/10/14 07:50:31;;;;;;;40.03;28.05;;;14.20;99.90;;;;;;4770443;30;20039;-72
2022/10/14 07:52:57;;;;;;;44.17;28.20;;;14.00;99.90;;;;;;4770255;30;20036;-72
2022/10/14 07:55:22;;;;;;;40.40;29.90;;;14.00;99.90;;;;;;4770494;30;20030;-72
2022/10/14 07:57:48;;;;;;;38.38;29.02;;;13.90;99.90;;;;;;4770338;30;20109;-72
2022/10/14 08:00:14;;;;;;;51.63;36.80;;;14.00;99.90;;;;;;4770356;30;20103;-72
2022/10/14 08:02:40;;;;;;;55.35;40.92;;;14.00;99.90;;;;;;4770162;30;20066;-72
2022/10/14 08:05:06;;;;;;;59.28;41.58;;;13.90;99.90;;;;;;4770249;30;20050;-72
2022/10/14 08:07:32;;;;;;;67.50;46.03;;;13.70;99.90;;;;;;4770452;30;20114;-73
2022/10/14 08:09:58;;;;;;;59.78;42.05;;;13.70;99.90;;;;;;4770209;30;20040;-72
2022/10/14 08:12:23;;;;;;;58.28;42.45;;;13.80;99.90;;;;;;4770486;30;20502;-73
2022/10/14 08:14:49;;;;;;;56.67;40.95;;;13.90;99.90;;;;;;4770107;30;20024;-72
2022/10/14 08:17:16;;;;;;;53.85;41.92;;;13.70;99.90;;;;;;4770271;30;20111;-72
2022/10/14 08:19:41;;;;;;;54.67;39.05;;;14.00;99.90;;;;;;4770363;30;20028;-72
2022/10/14 08:22:08;;;;;;;56.42;39.67;;;14.10;99.90;;;;;;4770110;30;20023;-72
2022/10/14 08:24:34;;;;;;;51.92;37.78;;;14.20;99.90;;;;;;4754155;30;20052;-72
2022/10/14 08:27:00;;;;;;;58.17;35.40;;;14.30;99.90;;;;;;4769937;30;20545;-72
2022/10/14 08:29:26;;;;;;;48.10;34.42;;;14.10;99.90;;;;;;4770347;30;20039;-72
2022/10/14 08:31:54;;;;;;;44.78;33.28;;;14.50;99.90;;;;;;4770320;30;20040;-72
2022/10/14 08:34:20;;;;;;;51.58;37.13;;;14.60;99.90;;;;;;4768529;30;20132;-72
2022/10/14 08:36:47;;;;;;;51.45;38.38;;;14.70;99.90;;;;;;4769193;30;20039;-72
2022/10/14 08:39:16;;;;;;;49.90;37.90;;;14.80;99.90;;;;;;4769083;30;20093;-72
2022/10/14 08:41:56;;;;;;;51.22;36.92;;;14.80;99.90;;;;;;4769806;30;20108;-72
2022/10/14 08:44:25;;;;;;;47.40;33.47;;;15.00;99.90;;;;;;4769213;30;20051;-72
2022/10/14 08:47:00;;;;;;;50.28;36.05;;;15.00;99.90;;;;;;4769934;30;20032;-72
2022/10/14 08:50:03;;;;;;;46.40;33.60;;;14.90;99.90;;;;;;4769793;30;20051;-72
2022/10/14 08:52:54;;;;;;;47.78;35.55;;;15.10;99.90;;;;;;4769726;30;20035;-72
2022/10/14 08:55:26;;;;;;;46.10;35.85;;;15.10;99.90;;;;;;4769356;30;20031;-72
2022/10/14 08:58:37;;;;;;;48.72;33.97;;;15.30;99.90;;;;;;4769506;30;20087;-72
2022/10/14 09:01:25;;;;;;;46.05;33.15;;;15.70;99.90;;;;;;4697337;30;20041;-72
2022/10/14 09:04:01;;;;;;;55.25;34.72;;;16.10;99.90;;;;;;4682964;30;20053;-72
2022/10/14 09:06:29;;;;;;;42.38;32.05;;;16.20;99.90;;;;;;4696990;30;20029;-72
2022/10/14 09:09:05;;;;;;;46.85;36.33;;;16.30;99.90;;;;;;4696710;30;20049;-72
2022/10/14 09:11:37;;;;;;;51.47;34.65;;;16.50;99.90;;;;;;4697317;30;20064;-72
2022/10/14 09:14:07;;;;;;;50.05;34.22;;;16.50;99.90;;;;;;4696730;30;20133;-72
2022/10/14 09:16:38;;;;;;;41.78;30.92;;;16.50;99.90;;;;;;4696597;30;20037;-72
2022/10/14 09:19:13;;;;;;;39.72;31.67;;;16.50;99.90;;;;;;4696856;30;20041;-73
2022/10/14 09:21:44;;;;;;;49.28;31.25;;;16.60;99.90;;;;;;4697009;30;20041;-72
2022/10/14 09:24:25;;;;;;;41.30;28.85;;;16.90;99.90;;;;;;4697036;30;20102;-72
2022/10/14 09:27:16;;;;;;;42.92;31.30;;;16.80;99.90;;;;;;4697223;30;20405;-72
2022/10/14 09:29:45;;;;;;;43.92;30.63;;;16.90;99.90;;;;;;4696882;30;20483;-72
2022/10/14 09:32:19;;;;;;;43.22;28.63;;;17.10;99.90;;;;;;4696748;30;20037;-72
2022/10/14 09:34:48;;;;;;;42.78;27.25;;;17.10;99.90;;;;;;4725074;30;20105;-72
2022/10/14 09:37:30;;;;;;;40.53;26.75;;;16.90;99.90;;;;;;4769520;30;20032;-72
2022/10/14 09:40:21;;;;;;;41.33;25.52;;;16.80;99.90;;;;;;4769370;30;20031;-72
2022/10/14 09:43:04;;;;;;;32.30;21.58;;;16.40;99.90;;;;;;4768624;30;20040;-72
2022/10/14 09:46:03;;;;;;;28.45;21.92;;;16.50;99.90;;;;;;4769352;30;20044;-72
2022/10/14 09:48:43;;;;;;;30.13;19.45;;;16.10;99.90;;;;;;4769224;30;20043;-72
2022/10/14 09:51:22;;;;;;;27.45;18.73;;;16.30;99.90;;;;;;4768220;30;20036;-72
2022/10/14 09:53:51;;;;;;;32.55;20.13;;;16.50;99.90;;;;;;4768905;30;20032;-72
2022/10/14 09:56:29;;;;;;;24.20;17.95;;;16.60;99.90;;;;;;4768665;30;20930;-72
2022/10/14 09:58:57;;;;;;;26.42;18.35;;;16.90;99.90;;;;;;4768932;30;20039;-73
2022/10/14 10:01:45;;;;;;;26.42;19.30;;;16.90;99.90;;;;;;4768167;30;20032;-72
2022/10/14 10:04:40;;;;;;;25.08;19.05;;;17.20;99.90;;;;;;4756410;30;20052;-72
2022/10/14 10:07:25;;;;;;;28.73;18.38;;;17.40;99.90;;;;;;4767972;30;20036;-72
2022/10/14 10:09:59;;;;;;;25.52;17.27;;;17.50;99.90;;;;;;4768840;30;20434;-72
2022/10/14 10:12:31;;;;;;;24.75;17.00;;;17.40;99.90;;;;;;4752778;30;20032;-73
2022/10/14 10:15:02;;;;;;;24.75;16.33;;;17.60;99.90;;;;;;4769212;30;20054;-72
2022/10/14 10:17:31;;;;;;;25.40;17.97;;;17.80;99.90;;;;;;4768853;30;20110;-73
2022/10/14 10:20:30;;;;;;;24.42;17.10;;;17.70;99.90;;;;;;4769306;30;20382;-72
2022/10/14 10:22:57;;;;;;;28.23;17.85;;;17.80;99.90;;;;;;4696314;30;20041;-72
2022/10/14 10:25:27;;;;;;;27.38;17.85;;;18.00;99.90;;;;;;4696748;30;20061;-72
2022/10/14 10:27:57;;;;;;;27.63;18.13;;;18.20;99.90;;;;;;4696691;30;20033;-72
2022/10/14 10:30:28;;;;;;;25.33;14.32;;;18.20;99.90;;;;;;4696852;30;20470;-72
2022/10/14 10:33:08;;;;;;;24.77;15.77;;;18.20;99.90;;;;;;4682654;30;20572;-72
2022/10/14 10:35:47;;;;;;;27.85;16.45;;;18.20;99.90;;;;;;4696670;30;20056;-72
2022/10/14 10:38:30;;;;;;;25.05;16.08;;;18.30;99.90;;;;;;4696425;30;20064;-72
2022/10/14 10:41:26;;;;;;;24.88;14.55;;;18.40;99.90;;;;;;4696542;30;20553;-72
2022/10/14 10:44:11;;;;;;;20.40;12.50;;;18.50;99.90;;;;;;4696408;30;20042;-72
2022/10/14 10:47:04;;;;;;;23.65;13.30;;;18.50;99.90;;;;;;4696460;30;20072;-73
2022/10/14 10:49:39;;;;;;;20.88;12.80;;;18.40;99.90;;;;;;4696865;30;20033;-73
2022/10/14 10:52:35;;;;;;;20.52;12.52;;;18.50;99.90;;;;;;4696382;30;20057;-72
2022/10/14 10:55:30;;;;;;;16.20;11.10;;;18.70;99.90;;;;;;4696411;30;20029;-72
2022/10/14 10:58:26;;;;;;;16.48;10.18;;;18.60;99.90;;;;;;4678840;30;20450;-72
2022/10/14 11:01:08;;;;;;;19.77;10.45;;;18.40;99.90;;;;;;4709427;30;20055;-73
2022/10/14 11:03:50;;;;;;;21.35;11.15;;;18.40;99.90;;;;;;4711798;30;20049;-72
2022/10/14 11:12:27;;;;;;;18.90;10.15;;;18.70;99.90;;;;;;4715748;30;20052;-73
2022/10/14 11:15:25;;;;;;;15.90;10.18;;;18.70;99.90;;;;;;4715877;30;20041;-73
2022/10/14 11:18:13;;;;;;;13.30;8.70;;;18.90;99.90;;;;;;4716826;30;20064;-73
2022/10/14 11:21:06;;;;;;;14.70;9.20;;;18.80;99.90;;;;;;4716561;30;20041;-72
2022/10/14 11:23:43;;;;;;;15.82;8.32;;;18.80;99.90;;;;;;4716650;30;20048;-73
2022/10/14 11:26:36;;;;;;;14.68;8.15;;;18.90;99.90;;;;;;4716168;30;20045;-73
2022/10/14 11:29:30;;;;;;;17.13;8.95;;;19.10;99.90;;;;;;4716566;30;20493;-72
2022/10/14 11:32:16;;;;;;;20.42;9.85;;;19.10;99.90;;;;;;4679086;30;20121;-72
2022/10/14 11:35:15;;;;;;;16.33;8.48;;;19.30;99.90;;;;;;4687484;30;20038;-73
2022/10/14 11:37:59;;;;;;;21.80;9.93;;;19.20;99.90;;;;;;4698739;30;20479;-72
2022/10/14 11:40:35;;;;;;;13.70;8.77;;;19.00;99.90;;;;;;4699212;30;20033;-73
2022/10/14 11:43:05;;;;;;;13.88;8.82;;;19.00;99.90;;;;;;4698832;30;20606;-73
2022/10/14 11:45:56;;;;;;;18.05;9.75;;;19.10;99.90;;;;;;4698610;30;20559;-72
2022/10/14 11:48:28;;;;;;;13.02;7.78;;;19.10;99.90;;;;;;4698455;30;20552;-73
2022/10/14 11:51:04;;;;;;;17.00;9.70;;;19.10;99.90;;;;;;4696804;30;20370;-73
2022/10/14 11:53:54;;;;;;;16.02;9.15;;;19.20;99.90;;;;;;4698082;30;20521;-72
2022/10/14 11:56:41;;;;;;;15.98;9.00;;;19.10;99.90;;;;;;4698514;30;20111;-73
2022/10/14 11:59:24;;;;;;;12.93;7.60;;;19.00;99.90;;;;;;4698588;30;20523;-73
2022/10/14 12:01:57;;;;;;;16.42;9.15;;;19.00;99.90;;;;;;4697957;30;20056;-73
2022/10/14 12:04:37;;;;;;;16.08;8.50;;;18.80;99.90;;;;;;4698079;30;20038;-73
2022/10/14 12:07:11;;;;;;;12.23;7.90;;;18.70;99.90;;;;;;4698162;30;20045;-73
2022/10/14 12:09:56;;;;;;;15.23;7.80;;;18.90;99.90;;;;;;4757162;30;20464;-73
2022/10/14 12:12:27;;;;;;;17.63;8.30;;;18.90;99.90;;;;;;4769317;30;20035;-73
2022/10/14 12:15:05;;;;;;;19.60;8.85;;;19.00;99.90;;;;;;4770301;30;20391;-72
2022/10/14 12:17:51;;;;;;;11.93;7.03;;;19.10;99.90;;;;;;4770393;30;20032;-72
2022/10/14 12:20:31;;;;;;;13.95;6.75;;;19.10;99.90;;;;;;4770532;30;20486;-72
2022/10/14 12:22:58;;;;;;;19.20;6.53;;;19.20;99.90;;;;;;4769597;30;20039;-73
2022/10/14 12:25:29;;;;;;;13.68;7.05;;;19.20;99.90;;;;;;4770048;30;20039;-72
2022/10/14 12:27:55;;;;;;;10.63;6.40;;;19.30;99.90;;;;;;4770259;30;20103;-73
2022/10/14 12:30:36;;;;;;;12.10;6.55;;;19.40;99.90;;;;;;4770292;30;20028;-73
2022/10/14 12:33:11;;;;;;;13.85;7.05;;;19.40;99.90;;;;;;4754641;30;20460;-72
2022/10/14 12:36:00;;;;;;;14.70;6.80;;;19.40;99.90;;;;;;4770711;30;20039;-72
2022/10/14 12:38:29;;;;;;;10.75;5.32;;;19.40;99.90;;;;;;4770461;30;20032;-72
2022/10/14 12:41:33;;;;;;;11.27;5.72;;;19.30;99.90;;;;;;4770242;30;20030;-73
2022/10/14 12:44:14;;;;;;;14.18;5.32;;;19.40;99.90;;;;;;4770434;30;20074;-73
2022/10/14 12:46:44;;;;;;;9.07;4.63;;;19.50;99.90;;;;;;4770298;30;20416;-72
2022/10/14 12:49:37;;;;;;;9.57;4.47;;;19.50;99.90;;;;;;4770269;30;20128;-73
2022/10/14 12:52:06;;;;;;;8.00;4.95;;;19.60;99.90;;;;;;4766772;30;20039;-73
2022/10/14 12:54:36;;;;;;;8.05;4.32;;;19.60;99.90;;;;;;4754683;30;20127;-72
2022/10/14 12:57:02;;;;;;;12.27;4.80;;;19.60;99.90;;;;;;4770048;30;20109;-73
2022/10/14 12:59:37;;;;;;;10.15;3.88;;;19.60;99.90;;;;;;4770006;30;20040;-72
2022/10/14 13:02:34;;;;;;;7.28;3.83;;;19.60;99.90;;;;;;4769453;30;20035;-73